Time;durP1;ratioP1;P1;durP2;ratioP2;P2;SDS_P1;SDS_P2;PMS_P1;PMS_P2;Temp;Humidity;BMP_temperature;BMP_pressure;BME280_temperature;BME280_humidity;BME280_pressure;Samples;Min_cycle;Max_cycle;Signal;HPM_P1;HPM_P2
2021/05/07 00:01:07;;;;;;;7.57;1.90;;;7.60;99.90;;;;;;5034186;28;20611;-61
2021/05/07 00:03:33;;;;;;;6.40;2.13;;;7.30;99.90;;;;;;5033832;28;20199;-61
2021/05/07 00:06:02;;;;;;;6.03;1.70;;;7.20;1.00;;;;;;5033533;28;20207;-61
2021/05/07 00:08:32;;;;;;;3.72;2.35;;;7.10;24.90;;;;;;5032992;28;20508;-61
2021/05/07 00:10:59;;;;;;;3.10;1.90;;;7.20;1.00;;;;;;5032861;28;20654;-61
2021/05/07 00:13:26;;;;;;;4.57;1.92;;;7.10;1.00;;;;;;5033637;28;20186;-61
2021/05/07 00:15:51;;;;;;;3.40;2.10;;;7.10;1.00;;;;;;5033355;28;20538;-61
2021/05/07 00:18:18;;;;;;;3.17;2.00;;;7.30;1.00;;;;;;5034075;28;20178;-61
2021/05/07 00:20:43;;;;;;;7.95;1.73;;;7.50;99.90;;;;;;5033587;28;20182;-61
2021/05/07 00:23:09;;;;;;;2.00;1.60;;;7.30;1.00;;;;;;5033234;28;20189;-61
2021/05/07 00:25:35;;;;;;;3.93;1.77;;;7.10;1.00;;;;;;5033928;28;20229;-61
2021/05/07 00:28:09;;;;;;;4.03;1.77;;;6.70;1.00;;;;;;5033648;28;20174;-61
2021/05/07 00:30:35;;;;;;;4.90;1.90;;;6.70;1.00;;;;;;5033415;28;20241;-61
2021/05/07 00:33:01;;;;;;;3.15;1.42;;;6.70;1.00;;;;;;5033420;28;20177;-61
2021/05/07 00:35:27;;;;;;;4.67;1.87;;;6.60;1.00;;;;;;5032990;28;20268;-61
2021/05/07 00:37:53;;;;;;;3.60;1.63;;;6.70;1.00;;;;;;5032228;28;20494;-61
2021/05/07 00:40:19;;;;;;;3.20;1.48;;;6.70;1.00;;;;;;5033503;28;20190;-61
2021/05/07 00:42:45;;;;;;;4.38;1.50;;;6.80;99.90;;;;;;5033354;28;20178;-61
2021/05/07 00:45:13;;;;;;;4.73;1.80;;;6.70;14.30;;;;;;5032916;28;20188;-61
2021/05/07 00:47:59;;;;;;;5.15;2.25;;;6.70;1.00;;;;;;5033531;28;20520;-60
2021/05/07 00:50:29;;;;;;;2.10;1.90;;;6.80;99.90;;;;;;5032833;28;20205;-60
2021/05/07 00:52:55;;;;;;;2.03;1.73;;;7.00;1.00;;;;;;5033332;28;20186;-61
2021/05/07 00:55:21;;;;;;;2.33;1.70;;;7.10;99.90;;;;;;5032329;28;20206;-60
2021/05/07 00:57:48;;;;;;;2.53;1.80;;;7.20;99.90;;;;;;5033498;28;20224;-60
2021/05/07 01:00:14;;;;;;;6.07;1.75;;;7.20;1.00;;;;;;5032141;28;20184;-61
2021/05/07 01:02:39;;;;;;;4.35;2.38;;;7.50;1.00;;;;;;5032160;28;20213;-61
2021/05/07 01:05:06;;;;;;;4.83;1.90;;;7.70;1.00;;;;;;5032714;28;20217;-61
2021/05/07 01:07:32;;;;;;;2.25;2.00;;;7.40;99.90;;;;;;5033266;28;20188;-61
2021/05/07 01:10:00;;;;;;;2.65;2.05;;;7.10;99.90;;;;;;5032908;28;20686;-61
2021/05/07 01:12:27;;;;;;;3.33;1.80;;;7.10;99.90;;;;;;5032900;28;20217;-61
2021/05/07 01:15:10;;;;;;;5.30;3.08;;;7.20;1.00;;;;;;5031545;28;20212;-61
2021/05/07 01:17:42;;;;;;;3.95;2.50;;;7.20;99.90;;;;;;5033037;28;20250;-60
2021/05/07 01:20:15;;;;;;;3.17;2.22;;;7.20;19.90;;;;;;5032965;28;20578;-60
2021/05/07 01:22:43;;;;;;;7.72;2.10;;;7.30;99.90;;;;;;5032830;28;20619;-60
2021/05/07 01:25:10;;;;;;;5.22;2.15;;;7.40;1.00;;;;;;5032728;28;20587;-60
2021/05/07 01:27:38;;;;;;;4.72;2.00;;;7.30;1.00;;;;;;5032707;28;20239;-60
2021/05/07 01:30:24;;;;;;;5.28;2.25;;;7.30;99.40;;;;;;5032904;28;20216;-61
2021/05/07 01:32:50;;;;;;;5.05;2.60;;;7.70;1.00;;;;;;5032988;28;20614;-60
2021/05/07 01:35:19;;;;;;;4.22;2.80;;;7.70;1.00;;;;;;5031457;28;20267;-61
2021/05/07 01:37:49;;;;;;;4.38;2.22;;;7.60;99.90;;;;;;5032722;28;20482;-63
2021/05/07 01:40:21;;;;;;;4.40;2.50;;;7.50;99.90;;;;;;5032834;28;20178;-63
2021/05/07 01:42:47;;;;;;;7.65;3.80;;;7.70;1.00;;;;;;5032460;28;20366;-63
2021/05/07 01:45:18;;;;;;;5.93;3.05;;;7.70;99.90;;;;;;5032283;28;20184;-63
2021/05/07 01:47:44;;;;;;;5.40;2.53;;;7.50;1.00;;;;;;5033063;28;20182;-61
2021/05/07 01:50:15;;;;;;;6.45;2.78;;;7.10;99.90;;;;;;5032731;28;20567;-61
2021/05/07 01:52:41;;;;;;;4.55;2.35;;;7.00;1.00;;;;;;5032906;28;20178;-62
2021/05/07 01:55:08;;;;;;;6.60;2.60;;;6.90;99.90;;;;;;5031447;28;20209;-63
2021/05/07 01:57:35;;;;;;;8.32;2.67;;;7.00;1.00;;;;;;5033007;28;20220;-63
2021/05/07 02:00:04;;;;;;;9.27;2.90;;;7.00;99.90;;;;;;5031865;28;20512;-60
2021/05/07 02:02:30;;;;;;;8.07;3.10;;;7.10;99.90;;;;;;5032642;28;20271;-60
2021/05/07 02:04:55;;;;;;;9.73;3.37;;;6.90;1.00;;;;;;5032384;28;20216;-63
2021/05/07 02:07:21;;;;;;;7.23;2.93;;;6.90;99.90;;;;;;5035480;28;20182;-62
2021/05/07 02:09:46;;;;;;;10.53;3.63;;;7.10;99.90;;;;;;5036130;28;20217;-61
2021/05/07 02:12:12;;;;;;;4.80;2.13;;;7.00;99.90;;;;;;5036340;28;20274;-60
2021/05/07 02:14:37;;;;;;;6.23;2.60;;;7.00;99.90;;;;;;5035910;28;20198;-60
2021/05/07 02:17:04;;;;;;;4.03;2.50;;;6.80;1.00;;;;;;5036571;28;20181;-61
2021/05/07 02:19:30;;;;;;;6.68;2.60;;;7.20;1.00;;;;;;5036516;28;20192;-61
2021/05/07 02:21:56;;;;;;;5.87;2.77;;;7.40;99.90;;;;;;5037012;28;20269;-63
2021/05/07 02:24:21;;;;;;;5.70;2.30;;;7.70;1.00;;;;;;5036328;28;20210;-63
2021/05/07 02:26:47;;;;;;;3.23;2.27;;;7.40;99.90;;;;;;5039893;28;20190;-63
2021/05/07 02:29:12;;;;;;;4.23;2.43;;;7.10;99.90;;;;;;5040517;28;20186;-63
2021/05/07 02:31:38;;;;;;;5.97;2.43;;;6.90;91.70;;;;;;5040124;28;20193;-63
2021/05/07 02:34:03;;;;;;;5.30;2.57;;;7.10;99.90;;;;;;5039695;28;20178;-63
2021/05/07 02:36:29;;;;;;;4.50;2.00;;;7.30;99.90;;;;;;5039624;28;20194;-63
2021/05/07 02:38:54;;;;;;;3.90;2.10;;;7.40;56.30;;;;;;5037861;28;20257;-63
2021/05/07 02:41:20;;;;;;;5.70;2.80;;;7.00;99.90;;;;;;5038020;28;20263;-63
2021/05/07 02:43:46;;;;;;;4.97;2.10;;;6.70;1.00;;;;;;5037356;28;20176;-63
2021/05/07 02:46:14;;;;;;;5.83;2.10;;;6.60;1.00;;;;;;5037757;28;20208;-63
2021/05/07 02:48:39;;;;;;;6.13;2.15;;;6.50;96.60;;;;;;5037140;28;20201;-63
2021/05/07 02:51:05;;;;;;;3.93;1.93;;;6.50;99.90;;;;;;5035542;28;20239;-63
2021/05/07 02:53:30;;;;;;;7.87;2.40;;;6.60;99.90;;;;;;5035795;28;20627;-63
2021/05/07 02:55:56;;;;;;;4.27;2.20;;;6.70;99.90;;;;;;5035217;28;20221;-63
2021/05/07 02:58:21;;;;;;;4.80;2.70;;;6.70;99.90;;;;;;5035857;28;20189;-63
2021/05/07 03:00:47;;;;;;;5.20;2.17;;;6.60;99.90;;;;;;5035326;28;20631;-62
2021/05/07 03:03:12;;;;;;;6.67;2.80;;;6.60;99.90;;;;;;5035411;28;20178;-62
2021/05/07 03:05:38;;;;;;;5.57;2.20;;;6.50;99.90;;;;;;5035399;28;20520;-62
2021/05/07 03:08:04;;;;;;;9.97;2.87;;;6.60;99.90;;;;;;5034348;28;20182;-62
2021/05/07 03:10:29;;;;;;;3.37;1.67;;;6.60;99.90;;;;;;5034860;28;20212;-62
2021/05/07 03:12:55;;;;;;;3.50;2.57;;;6.50;99.90;;;;;;5034978;28;20428;-60
2021/05/07 03:15:20;;;;;;;4.77;2.17;;;6.50;99.90;;;;;;5034759;28;20646;-60
2021/05/07 03:17:49;;;;;;;6.93;2.20;;;6.40;99.90;;;;;;5034722;28;20193;-60
2021/05/07 03:20:15;;;;;;;2.20;1.73;;;6.40;99.90;;;;;;5035215;28;20184;-60
2021/05/07 03:22:40;;;;;;;6.07;2.65;;;6.30;1.00;;;;;;5035070;28;20271;-60
2021/05/07 03:25:09;;;;;;;4.20;1.90;;;6.30;1.00;;;;;;5033425;28;20316;-60
2021/05/07 03:27:35;;;;;;;2.83;2.33;;;6.20;1.00;;;;;;5034984;28;20182;-60
2021/05/07 03:30:00;;;;;;;5.17;2.13;;;6.20;1.00;;;;;;5034906;28;20504;-60
2021/05/07 03:32:26;;;;;;;4.10;2.37;;;6.10;1.00;;;;;;5034831;28;20231;-60
2021/05/07 03:34:51;;;;;;;12.93;2.43;;;6.10;10.60;;;;;;5034487;28;20214;-60
2021/05/07 03:37:17;;;;;;;5.10;1.77;;;6.00;25.10;;;;;;5034782;28;20194;-61
2021/05/07 03:39:44;;;;;;;3.77;1.50;;;6.00;1.00;;;;;;5034682;28;20174;-62
2021/05/07 03:42:10;;;;;;;3.72;1.90;;;6.10;1.00;;;;;;5034587;28;20553;-61
2021/05/07 03:44:35;;;;;;;1.50;1.33;;;6.20;1.00;;;;;;5034054;28;20221;-61
2021/05/07 03:47:01;;;;;;;2.50;1.63;;;6.40;1.00;;;;;;5034698;28;20220;-62
2021/05/07 03:49:28;;;;;;;3.28;2.00;;;6.50;1.00;;;;;;5031903;28;20670;-62
2021/05/07 03:51:54;;;;;;;10.43;2.45;;;6.40;1.00;;;;;;5034252;28;20208;-61
2021/05/07 03:54:19;;;;;;;3.40;1.80;;;6.20;1.00;;;;;;5033370;28;20201;-62
2021/05/07 03:56:45;;;;;;;1.93;1.77;;;6.40;1.00;;;;;;5034089;28;20236;-62
2021/05/07 03:59:10;;;;;;;2.93;1.63;;;6.30;1.00;;;;;;5034055;28;20170;-62
2021/05/07 04:01:36;;;;;;;3.93;1.87;;;6.40;1.00;;;;;;5034047;28;20496;-62
2021/05/07 04:04:05;;;;;;;4.90;1.80;;;6.50;1.00;;;;;;5033621;28;20235;-62
2021/05/07 04:06:31;;;;;;;2.47;1.85;;;6.40;1.00;;;;;;5034104;28;20182;-62
2021/05/07 04:09:18;;;;;;;4.27;1.70;;;6.50;6.00;;;;;;5033875;28;20384;-62
2021/05/07 04:14:13;;;;;;;4.75;2.55;;;6.80;1.00;;;;;;5033297;28;20317;-62
2021/05/07 04:16:38;;;;;;;5.00;1.60;;;6.70;1.00;;;;;;5034014;28;20280;-63
2021/05/07 04:19:04;;;;;;;3.93;1.97;;;6.80;1.00;;;;;;5033769;28;20431;-64
2021/05/07 04:21:29;;;;;;;5.27;2.47;;;6.80;1.00;;;;;;5033566;28;20177;-64
2021/05/07 04:23:55;;;;;;;3.63;2.20;;;6.70;1.00;;;;;;5033026;28;20265;-62
2021/05/07 04:26:21;;;;;;;4.43;2.30;;;6.70;1.00;;;;;;5033658;28;20614;-62
2021/05/07 04:28:46;;;;;;;3.40;1.70;;;6.50;1.00;;;;;;5032691;28;20518;-62
2021/05/07 04:31:12;;;;;;;2.27;1.90;;;6.70;8.00;;;;;;5033749;28;20243;-64
2021/05/07 04:33:37;;;;;;;2.70;2.30;;;6.80;7.20;;;;;;5033237;28;20425;-62
2021/05/07 04:36:04;;;;;;;4.80;2.40;;;6.80;4.20;;;;;;5032515;28;20220;-62
2021/05/07 04:38:29;;;;;;;4.95;2.00;;;6.80;16.10;;;;;;5033403;28;20637;-64
2021/05/07 04:40:55;;;;;;;2.40;1.67;;;7.00;18.50;;;;;;5033531;28;20201;-64
2021/05/07 04:43:20;;;;;;;2.90;1.93;;;7.20;23.50;;;;;;5033194;28;20236;-64
2021/05/07 04:45:46;;;;;;;5.83;2.67;;;7.20;1.00;;;;;;5031968;28;20194;-64
2021/05/07 04:48:13;;;;;;;5.47;2.17;;;7.10;1.00;;;;;;5033253;28;20610;-63
2021/05/07 04:50:40;;;;;;;2.90;2.30;;;7.10;1.00;;;;;;5033076;28;20278;-62
2021/05/07 04:53:08;;;;;;;2.58;1.90;;;7.20;1.00;;;;;;5032807;28;20673;-61
2021/05/07 04:55:34;;;;;;;4.22;2.15;;;7.10;1.00;;;;;;5032677;28;20213;-61
2021/05/07 04:58:00;;;;;;;2.40;1.60;;;7.10;1.00;;;;;;5033151;28;20200;-63
2021/05/07 05:00:25;;;;;;;3.40;2.10;;;7.10;1.00;;;;;;5033048;28;20615;-61
2021/05/07 05:02:51;;;;;;;3.57;2.00;;;7.20;1.00;;;;;;5032998;28;20228;-60
2021/05/07 05:05:18;;;;;;;6.90;2.50;;;7.20;1.00;;;;;;5032172;28;20186;-59
2021/05/07 05:07:55;;;;;;;3.13;2.10;;;7.40;1.00;;;;;;5033081;28;20201;-59
2021/05/07 05:10:20;;;;;;;3.83;2.10;;;7.30;1.00;;;;;;5032824;28;20197;-59
2021/05/07 05:12:46;;;;;;;4.57;2.23;;;7.30;1.00;;;;;;5032651;28;20188;-59
2021/05/07 05:15:12;;;;;;;5.20;2.37;;;7.40;1.00;;;;;;5031973;28;20475;-61
2021/05/07 05:17:38;;;;;;;7.75;3.50;;;7.30;1.00;;;;;;5032399;28;20200;-62
2021/05/07 05:20:05;;;;;;;4.80;2.80;;;7.60;1.00;;;;;;5032570;28;20634;-62
2021/05/07 05:22:31;;;;;;;3.70;2.40;;;7.50;1.00;;;;;;5032717;28;20428;-62
2021/05/07 05:24:57;;;;;;;2.97;2.30;;;7.50;1.00;;;;;;5030884;28;20550;-61
2021/05/07 05:27:23;;;;;;;1.88;1.73;;;7.80;1.00;;;;;;5031599;28;20186;-60
2021/05/07 05:29:49;;;;;;;2.95;2.10;;;8.10;1.00;;;;;;5032441;28;20620;-60
2021/05/07 05:32:15;;;;;;;4.67;3.00;;;8.20;1.00;;;;;;5031651;28;20197;-60
2021/05/07 05:34:40;;;;;;;8.63;3.13;;;8.20;1.00;;;;;;5031103;28;20218;-62
2021/05/07 05:37:06;;;;;;;4.97;2.50;;;8.30;1.00;;;;;;5033173;28;20178;-62
2021/05/07 05:39:31;;;;;;;5.40;2.63;;;8.30;1.00;;;;;;5032009;28;20568;-62
2021/05/07 05:42:00;;;;;;;3.70;2.07;;;8.00;1.00;;;;;;5037088;28;20182;-63
2021/05/07 05:44:25;;;;;;;3.20;2.20;;;7.90;1.00;;;;;;5035304;28;20350;-63
2021/05/07 05:46:51;;;;;;;1.63;1.50;;;8.10;1.00;;;;;;5036945;28;20706;-63
2021/05/07 05:49:17;;;;;;;6.10;2.33;;;7.90;1.00;;;;;;5037819;28;20261;-63
2021/05/07 05:51:42;;;;;;;7.57;2.20;;;8.00;1.00;;;;;;5037778;28;20427;-63
2021/05/07 05:54:08;;;;;;;4.90;1.97;;;8.10;1.00;;;;;;5035885;28;20516;-63
2021/05/07 05:56:34;;;;;;;4.53;1.63;;;8.10;1.00;;;;;;5037044;28;20623;-63
2021/05/07 05:59:00;;;;;;;2.80;1.60;;;8.20;1.00;;;;;;5036783;28;20583;-63
2021/05/07 06:01:25;;;;;;;6.93;3.60;;;8.30;1.00;;;;;;5036226;28;20426;-63
2021/05/07 06:03:51;;;;;;;3.60;2.60;;;8.50;1.00;;;;;;5035619;28;20188;-63
2021/05/07 06:06:17;;;;;;;2.10;1.63;;;8.70;99.90;;;;;;5036624;28;20233;-63
2021/05/07 06:08:42;;;;;;;2.17;1.50;;;9.10;1.00;;;;;;5036309;28;20279;-63
2021/05/07 06:11:08;;;;;;;3.00;2.10;;;9.40;1.00;;;;;;5036493;28;20228;-63
2021/05/07 06:13:34;;;;;;;3.30;1.80;;;9.50;99.90;;;;;;5037460;28;20187;-63
2021/05/07 06:16:00;;;;;;;32.57;20.20;;;9.50;1.00;;;;;;5037734;28;20940;-63
2021/05/07 06:18:26;;;;;;;2.42;2.00;;;9.60;1.00;;;;;;5036943;28;20980;-63
2021/05/07 06:20:52;;;;;;;6.73;2.30;;;9.30;1.00;;;;;;5036899;28;20256;-63
2021/05/07 06:23:17;;;;;;;2.93;2.10;;;9.20;62.70;;;;;;5038194;28;20642;-63
2021/05/07 06:25:43;;;;;;;3.43;1.97;;;9.20;1.00;;;;;;5037735;28;20614;-63
2021/05/07 06:28:09;;;;;;;5.00;2.60;;;9.10;1.00;;;;;;5036914;28;20208;-63
2021/05/07 06:30:34;;;;;;;5.13;2.40;;;8.70;1.00;;;;;;5035704;28;20181;-62
2021/05/07 06:33:00;;;;;;;7.97;3.97;;;8.40;99.90;;;;;;5035673;28;20189;-63
2021/05/07 06:35:28;;;;;;;5.20;2.23;;;8.20;57.10;;;;;;5037137;28;20588;-60
2021/05/07 06:37:56;;;;;;;2.95;1.98;;;8.50;99.90;;;;;;5035280;28;20657;-60
2021/05/07 06:40:21;;;;;;;3.97;3.20;;;8.40;99.90;;;;;;5035467;28;20748;-60
2021/05/07 06:42:48;;;;;;;3.13;2.70;;;8.60;99.90;;;;;;5035383;28;20216;-60
2021/05/07 06:45:14;;;;;;;4.50;2.83;;;8.70;99.90;;;;;;5033947;28;20848;-60
2021/05/07 06:47:40;;;;;;;4.77;3.70;;;8.50;99.90;;;;;;5035621;28;20184;-60
2021/05/07 06:50:07;;;;;;;3.47;3.17;;;8.30;99.90;;;;;;5059289;28;20441;-60
2021/05/07 06:52:32;;;;;;;4.85;3.40;;;8.40;99.90;;;;;;5068690;28;20187;-60
2021/05/07 06:54:59;;;;;;;3.33;2.70;;;7.90;99.90;;;;;;5055688;28;20671;-60
2021/05/07 06:57:24;;;;;;;3.42;3.00;;;7.80;1.00;;;;;;5060100;28;20175;-60
2021/05/07 06:59:50;;;;;;;4.50;3.57;;;8.20;1.00;;;;;;5075733;28;20195;-61
2021/05/07 07:02:16;;;;;;;4.00;3.50;;;8.30;1.00;;;;;;5075936;28;20668;-60
2021/05/07 07:04:42;;;;;;;3.85;3.00;;;8.70;1.00;;;;;;5069315;28;20438;-60
2021/05/07 07:07:08;;;;;;;7.67;4.00;;;8.80;99.90;;;;;;5055545;28;20269;-60
2021/05/07 07:09:34;;;;;;;3.97;3.17;;;8.90;99.90;;;;;;5055651;28;20434;-61
2021/05/07 07:12:00;;;;;;;6.33;3.83;;;9.00;16.60;;;;;;5050871;28;20188;-63
2021/05/07 07:14:25;;;;;;;6.57;3.70;;;9.60;44.80;;;;;;5054552;28;20247;-61
2021/05/07 07:16:51;;;;;;;5.10;3.20;;;10.40;99.90;;;;;;5055237;28;20177;-65
2021/05/07 07:19:16;;;;;;;4.93;3.10;;;10.80;99.90;;;;;;5055016;28;20230;-66
2021/05/07 07:21:42;;;;;;;3.77;2.83;;;11.20;1.00;;;;;;5054262;28;20533;-65
2021/05/07 07:24:08;;;;;;;6.23;3.03;;;10.60;1.00;;;;;;5051598;28;20223;-64
2021/05/07 07:26:34;;;;;;;4.13;3.00;;;10.10;1.00;;;;;;5053741;28;20207;-62
2021/05/07 07:29:01;;;;;;;2.70;2.50;;;10.10;99.90;;;;;;5053223;28;20216;-66
2021/05/07 07:31:26;;;;;;;3.20;2.63;;;9.90;96.90;;;;;;5053749;28;20420;-65
2021/05/07 07:33:52;;;;;;;3.30;2.90;;;8.50;1.00;;;;;;5049119;28;20234;-67
2021/05/07 07:36:18;;;;;;;2.87;2.67;;;8.00;69.30;;;;;;5042504;28;20208;-65
2021/05/07 07:38:43;;;;;;;3.10;2.80;;;8.10;1.00;;;;;;5044295;28;20422;-65
2021/05/07 07:41:09;;;;;;;3.00;2.80;;;8.10;1.00;;;;;;5052368;28;20272;-66
2021/05/07 07:43:35;;;;;;;4.10;3.70;;;8.10;1.00;;;;;;5037937;28;20196;-66
2021/05/07 07:46:01;;;;;;;4.47;3.63;;;7.90;1.00;;;;;;5044723;28;20434;-66
2021/05/07 07:48:27;;;;;;;5.10;3.33;;;8.70;1.00;;;;;;5054069;28;20644;-62
2021/05/07 07:50:52;;;;;;;5.87;3.00;;;9.00;99.90;;;;;;5054086;28;20224;-63
2021/05/07 07:53:18;;;;;;;3.00;2.77;;;9.30;20.30;;;;;;5054252;28;20756;-69
2021/05/07 07:55:44;;;;;;;3.37;2.90;;;9.10;99.90;;;;;;5058534;28;20256;-68
2021/05/07 07:58:09;;;;;;;2.90;2.60;;;8.50;99.90;;;;;;5073177;28;20195;-62
2021/05/07 08:00:35;;;;;;;3.27;2.40;;;8.80;1.00;;;;;;5071420;28;20267;-68
2021/05/07 08:03:01;;;;;;;4.03;2.03;;;9.40;1.00;;;;;;5073536;28;20181;-66
2021/05/07 08:05:27;;;;;;;3.43;2.77;;;9.50;99.90;;;;;;5072594;28;20509;-63
2021/05/07 08:07:57;;;;;;;2.40;2.20;;;9.20;1.00;;;;;;5052386;28;20529;-64
2021/05/07 08:10:23;;;;;;;4.05;2.30;;;9.00;1.00;;;;;;5053288;28;20208;-63
2021/05/07 08:12:49;;;;;;;3.03;2.10;;;9.40;1.00;;;;;;5054086;28;20518;-63
2021/05/07 08:15:15;;;;;;;3.03;2.47;;;9.90;1.00;;;;;;5053193;28;20258;-63
2021/05/07 08:17:40;;;;;;;2.57;2.37;;;10.20;1.00;;;;;;5053629;28;20177;-63
2021/05/07 08:20:07;;;;;;;2.50;1.77;;;11.10;1.00;;;;;;5053621;28;20423;-63
2021/05/07 08:22:33;;;;;;;4.07;1.70;;;10.80;1.00;;;;;;5052655;28;20181;-64
2021/05/07 08:25:00;;;;;;;2.93;1.63;;;10.20;99.90;;;;;;5052864;28;20606;-64
2021/05/07 08:27:26;;;;;;;2.10;1.90;;;9.90;99.90;;;;;;5053318;28;20431;-63
2021/05/07 08:29:51;;;;;;;1.20;1.03;;;9.20;99.90;;;;;;5053537;28;20184;-63
2021/05/07 08:32:17;;;;;;;1.30;1.20;;;7.60;99.90;;;;;;5053401;28;20762;-64
2021/05/07 08:34:44;;;;;;;1.10;1.00;;;6.50;1.00;;;;;;5052851;28;20205;-64
2021/05/07 08:37:11;;;;;;;4.25;1.05;;;6.50;1.00;;;;;;5053001;28;20477;-64
2021/05/07 08:39:38;;;;;;;0.82;0.82;;;6.80;1.00;;;;;;5053649;28;20173;-64
2021/05/07 08:42:05;;;;;;;1.90;1.80;;;7.10;1.00;;;;;;5053600;28;20185;-64
2021/05/07 08:44:31;;;;;;;2.30;2.08;;;7.40;1.00;;;;;;5052908;28;20200;-64
2021/05/07 08:46:56;;;;;;;2.13;1.93;;;7.90;1.00;;;;;;5053490;28;20187;-64
2021/05/07 08:49:24;;;;;;;1.30;1.20;;;8.70;1.00;;;;;;5053701;28;20196;-64
2021/05/07 08:51:50;;;;;;;2.47;1.40;;;9.10;99.90;;;;;;5053306;28;20306;-64
2021/05/07 08:54:16;;;;;;;2.38;1.88;;;8.60;1.00;;;;;;5052124;28;20204;-64
2021/05/07 08:56:41;;;;;;;3.10;1.40;;;8.50;1.00;;;;;;5052311;28;20595;-64
2021/05/07 08:59:07;;;;;;;2.50;1.90;;;7.90;99.90;;;;;;5072872;28;20251;-65
2021/05/07 09:01:41;;;;;;;2.58;1.45;;;7.50;1.00;;;;;;5072948;28;20269;-64
2021/05/07 09:04:17;;;;;;;1.70;1.02;;;7.30;1.00;;;;;;5067023;28;20268;-64
2021/05/07 09:06:50;;;;;;;2.95;1.17;;;7.10;1.00;;;;;;5052796;28;20184;-63
2021/05/07 09:09:26;;;;;;;2.35;1.20;;;7.10;1.00;;;;;;5052859;28;20181;-64
2021/05/07 09:11:52;;;;;;;1.45;0.63;;;7.20;1.00;;;;;;5052645;28;20257;-64
2021/05/07 09:14:18;;;;;;;1.10;0.87;;;7.40;1.00;;;;;;5051964;28;20548;-63
2021/05/07 09:17:01;;;;;;;1.48;1.02;;;7.70;99.90;;;;;;5052571;28;20495;-60
2021/05/07 09:19:34;;;;;;;3.10;2.17;;;8.00;99.90;;;;;;5051492;28;20176;-63
2021/05/07 09:22:03;;;;;;;1.50;1.25;;;8.40;1.00;;;;;;5052622;28;20238;-64
2021/05/07 09:24:35;;;;;;;2.47;2.10;;;8.60;1.00;;;;;;5051953;28;20264;-61
2021/05/07 09:27:02;;;;;;;1.90;1.00;;;9.00;99.90;;;;;;5052592;28;20188;-63
2021/05/07 09:29:31;;;;;;;1.10;1.00;;;9.30;99.90;;;;;;5052562;28;20639;-60
2021/05/07 09:32:00;;;;;;;2.25;1.30;;;9.30;1.00;;;;;;5052402;28;20211;-59
2021/05/07 09:34:26;;;;;;;1.13;1.00;;;9.20;8.30;;;;;;5052064;28;20204;-63
2021/05/07 09:36:52;;;;;;;1.25;0.80;;;9.20;99.90;;;;;;5051342;28;20180;-62
2021/05/07 09:39:21;;;;;;;2.07;1.30;;;9.30;90.00;;;;;;5052529;28;20495;-62
2021/05/07 09:41:49;;;;;;;1.20;1.00;;;9.70;99.90;;;;;;5050607;28;20180;-63
2021/05/07 09:44:24;;;;;;;1.05;0.95;;;10.00;1.00;;;;;;5031851;28;20178;-63
2021/05/07 09:46:52;;;;;;;2.03;1.52;;;10.00;99.90;;;;;;5032529;28;20177;-63
2021/05/07 09:49:26;;;;;;;1.80;1.63;;;10.30;99.90;;;;;;5035854;28;20173;-63
2021/05/07 09:51:53;;;;;;;1.70;1.30;;;10.60;99.90;;;;;;5052666;28;20180;-63
2021/05/07 09:54:18;;;;;;;1.52;1.25;;;10.70;1.00;;;;;;5051609;28;20327;-63
2021/05/07 09:56:45;;;;;;;1.30;0.80;;;11.40;1.00;;;;;;5063553;28;20282;-63
2021/05/07 09:59:12;;;;;;;1.45;1.10;;;11.00;99.90;;;;;;5052339;28;20235;-61
2021/05/07 10:01:41;;;;;;;1.52;1.02;;;9.70;1.00;;;;;;5052799;28;20253;-60
2021/05/07 10:04:09;;;;;;;2.05;1.10;;;8.80;43.50;;;;;;5043970;28;20192;-61
2021/05/07 10:06:36;;;;;;;1.00;0.75;;;8.60;99.90;;;;;;5049501;28;20286;-63
2021/05/07 10:09:02;;;;;;;1.65;1.55;;;8.50;99.90;;;;;;5051766;28;20177;-61
2021/05/07 10:11:45;;;;;;;1.20;1.10;;;8.40;99.90;;;;;;5052305;28;20203;-61
2021/05/07 10:14:13;;;;;;;0.98;0.80;;;8.60;92.90;;;;;;5051507;28;20173;-61
2021/05/07 10:16:39;;;;;;;1.25;0.80;;;9.20;1.00;;;;;;5052412;28;20188;-61
2021/05/07 10:19:07;;;;;;;2.00;1.27;;;9.50;99.90;;;;;;5052499;28;20169;-62
2021/05/07 10:21:43;;;;;;;2.35;0.95;;;9.70;1.00;;;;;;5052471;28;20184;-61
2021/05/07 10:24:11;;;;;;;1.63;1.48;;;9.90;99.90;;;;;;5052200;28;20208;-62
2021/05/07 10:26:52;;;;;;;1.00;0.88;;;9.60;99.90;;;;;;5053693;28;20258;-60
2021/05/07 10:29:19;;;;;;;1.30;0.85;;;9.50;99.90;;;;;;5056018;28;20284;-61
2021/05/07 10:31:53;;;;;;;0.77;0.70;;;9.30;1.00;;;;;;5045547;28;20264;-60
2021/05/07 10:34:20;;;;;;;0.77;0.73;;;9.50;99.90;;;;;;5035952;28;20614;-61
2021/05/07 10:36:48;;;;;;;1.90;0.95;;;9.60;1.00;;;;;;5038210;28;20216;-60
2021/05/07 10:39:22;;;;;;;1.02;0.75;;;9.50;99.90;;;;;;5037410;28;20657;-61
2021/05/07 10:41:49;;;;;;;3.13;1.02;;;9.70;99.90;;;;;;5037108;28;20192;-61
2021/05/07 10:44:15;;;;;;;2.53;1.20;;;10.10;1.00;;;;;;5038277;28;20197;-61
2021/05/07 10:46:44;;;;;;;1.35;1.10;;;10.20;1.00;;;;;;5039871;28;20607;-61
2021/05/07 10:49:10;;;;;;;1.85;1.73;;;10.10;1.00;;;;;;5039620;28;20490;-61
2021/05/07 10:51:37;;;;;;;1.25;1.13;;;10.30;99.90;;;;;;5040575;28;20181;-60
2021/05/07 10:54:16;;;;;;;2.22;1.52;;;10.50;1.00;;;;;;5038835;28;20176;-60
2021/05/07 10:56:43;;;;;;;1.25;1.00;;;10.80;1.00;;;;;;5040073;28;20182;-61
2021/05/07 10:59:12;;;;;;;2.25;1.10;;;10.70;1.00;;;;;;5040381;28;20205;-61
2021/05/07 11:01:37;;;;;;;1.38;1.27;;;10.80;1.00;;;;;;5036042;28;20178;-61
2021/05/07 11:04:13;;;;;;;2.50;0.90;;;10.30;1.00;;;;;;5035315;28;20496;-63
2021/05/07 11:06:41;;;;;;;2.80;1.38;;;10.30;1.00;;;;;;5035385;28;20185;-64
2021/05/07 11:09:23;;;;;;;1.65;1.55;;;10.50;1.00;;;;;;5036261;28;20178;-63
2021/05/07 11:11:53;;;;;;;1.30;1.20;;;10.70;1.00;;;;;;5035952;28;20197;-63
2021/05/07 11:14:22;;;;;;;1.73;1.23;;;10.80;99.90;;;;;;5035625;28;20260;-64
2021/05/07 11:16:49;;;;;;;2.17;1.20;;;11.20;99.90;;;;;;5036883;28;20177;-64
2021/05/07 11:19:24;;;;;;;2.75;1.50;;;11.00;99.90;;;;;;5034809;28;20289;-63
2021/05/07 11:21:55;;;;;;;4.10;1.40;;;11.50;99.90;;;;;;5035100;28;20220;-63
2021/05/07 11:24:23;;;;;;;1.58;1.40;;;11.30;99.90;;;;;;5034212;28;20212;-64
2021/05/07 11:26:49;;;;;;;2.28;1.27;;;11.60;99.90;;;;;;5035005;28;20181;-63
2021/05/07 11:29:34;;;;;;;1.47;1.10;;;11.50;99.90;;;;;;5035195;28;20196;-63
2021/05/07 11:32:16;;;;;;;1.30;0.95;;;11.50;99.90;;;;;;5034822;28;20177;-63
2021/05/07 11:34:42;;;;;;;1.35;1.08;;;11.00;48.20;;;;;;5034211;28;20215;-62
2021/05/07 11:37:08;;;;;;;1.65;1.10;;;10.80;91.20;;;;;;5050357;28;20212;-63
2021/05/07 11:39:34;;;;;;;1.60;1.40;;;10.80;99.90;;;;;;5034576;28;20181;-62
2021/05/07 11:42:00;;;;;;;1.20;1.00;;;10.40;99.90;;;;;;5034653;28;20177;-63
2021/05/07 11:44:26;;;;;;;1.37;1.10;;;10.20;1.00;;;;;;5033616;28;20204;-61
2021/05/07 11:46:56;;;;;;;3.43;1.40;;;10.40;99.90;;;;;;5034290;28;20428;-61
2021/05/07 11:49:22;;;;;;;3.45;1.70;;;10.60;99.90;;;;;;5034779;28;20185;-63
2021/05/07 11:51:48;;;;;;;1.77;1.10;;;10.60;99.90;;;;;;5034790;28;20185;-63
2021/05/07 11:54:14;;;;;;;3.50;1.30;;;10.30;1.00;;;;;;5042062;28;20457;-64
2021/05/07 11:56:39;;;;;;;1.40;1.30;;;10.50;1.00;;;;;;5045214;28;20606;-64
2021/05/07 11:59:05;;;;;;;1.33;1.23;;;11.00;99.90;;;;;;5034104;28;20610;-65
2021/05/07 12:01:31;;;;;;;1.33;1.20;;;11.30;99.90;;;;;;5033685;28;20224;-65
2021/05/07 12:04:01;;;;;;;2.10;1.40;;;11.10;99.90;;;;;;5033341;28;20175;-65
2021/05/07 12:06:29;;;;;;;4.25;1.30;;;11.00;99.90;;;;;;5048218;28;20180;-64
2021/05/07 12:09:09;;;;;;;1.20;1.08;;;11.00;61.40;;;;;;5054046;28;20181;-64
2021/05/07 12:11:34;;;;;;;3.55;1.17;;;11.20;95.50;;;;;;5054080;28;20238;-64
2021/05/07 12:14:14;;;;;;;3.00;1.70;;;10.90;59.30;;;;;;5053380;28;20181;-64
2021/05/07 12:16:39;;;;;;;5.05;1.20;;;11.10;99.90;;;;;;5053411;28;20185;-65
2021/05/07 12:19:06;;;;;;;1.17;1.07;;;10.90;56.20;;;;;;5054011;28;20250;-66
2021/05/07 12:21:45;;;;;;;2.63;1.00;;;10.90;9.90;;;;;;5053689;28;20789;-63
2021/05/07 12:24:26;;;;;;;4.38;1.50;;;11.30;1.00;;;;;;5052985;28;20238;-68
2021/05/07 12:26:52;;;;;;;1.38;1.27;;;10.90;1.00;;;;;;5041639;28;20182;-68
2021/05/07 12:29:17;;;;;;;1.33;1.00;;;10.70;39.00;;;;;;5032706;28;20185;-68
2021/05/07 12:31:43;;;;;;;3.43;1.30;;;10.40;67.60;;;;;;5032489;28;20594;-66
2021/05/07 12:34:13;;;;;;;3.43;1.50;;;10.50;17.60;;;;;;5033034;28;20520;-65
2021/05/07 12:36:40;;;;;;;1.77;1.25;;;10.00;99.90;;;;;;5033106;28;20183;-66
2021/05/07 12:39:14;;;;;;;1.17;1.08;;;9.10;1.00;;;;;;5033614;28;20177;-66
2021/05/07 12:41:39;;;;;;;2.00;1.20;;;8.40;1.00;;;;;;5033126;28;20186;-65
2021/05/07 12:44:11;;;;;;;0.90;0.90;;;8.30;1.00;;;;;;5032484;28;20188;-66
2021/05/07 12:46:36;;;;;;;2.38;1.30;;;8.30;1.00;;;;;;5033196;28;20749;-66
2021/05/07 12:49:02;;;;;;;2.23;1.40;;;8.30;99.90;;;;;;5033001;28;20188;-65
2021/05/07 12:51:27;;;;;;;2.00;1.13;;;8.60;99.90;;;;;;5032676;28;20672;-66
2021/05/07 12:53:54;;;;;;;5.30;2.83;;;8.90;1.00;;;;;;5032280;28;20188;-66
2021/05/07 12:56:22;;;;;;;3.58;1.42;;;9.30;1.00;;;;;;5033088;28;20653;-66
2021/05/07 12:58:48;;;;;;;3.00;1.10;;;9.40;1.00;;;;;;5033054;28;20188;-67
2021/05/07 13:01:13;;;;;;;2.60;1.13;;;9.40;1.00;;;;;;5045488;28;20507;-66
2021/05/07 13:03:39;;;;;;;2.30;1.10;;;9.70;1.00;;;;;;5052622;28;20195;-65